sensor_id;sensor_type;location;lat;lon;timestamp;temperature;humidity
12520;DHT22;6325;49.540;8.364;2022-09-27T00:01:52;12.20;99.90
12520;DHT22;6325;49.540;8.364;2022-09-27T00:04:18;11.20;99.90
12520;DHT22;6325;49.540;8.364;2022-09-27T00:06:45;12.10;99.90
12520;DHT22;6325;49.540;8.364;2022-09-27T00:09:12;11.90;99.90
12520;DHT22;6325;49.540;8.364;2022-09-27T00:11:40;12.20;99.90
12520;DHT22;6325;49.540;8.364;2022-09-27T00:14:10;11.60;99.90
12520;DHT22;6325;49.540;8.364;2022-09-27T00:16:40;12.10;99.90
12520;DHT22;6325;49.540;8.364;2022-09-27T00:19:10;11.60;99.90
12520;DHT22;6325;49.540;8.364;2022-09-27T00:21:38;11.60;99.90
12520;DHT22;6325;49.540;8.364;2022-09-27T00:24:06;12.00;99.90
12520;DHT22;6325;49.540;8.364;2022-09-27T00:26:32;11.60;99.90
12520;DHT22;6325;49.540;8.364;2022-09-27T00:28:59;11.50;99.90
12520;DHT22;6325;49.540;8.364;2022-09-27T00:31:27;11.90;99.90
12520;DHT22;6325;49.540;8.364;2022-09-27T00:33:57;11.60;99.90
12520;DHT22;6325;49.540;8.364;2022-09-27T00:36:25;11.70;99.90
12520;DHT22;6325;49.540;8.364;2022-09-27T00:38:52;12.00;99.90
12520;DHT22;6325;49.540;8.364;2022-09-27T00:41:21;11.60;99.90
12520;DHT22;6325;49.540;8.364;2022-09-27T00:43:50;11.50;99.90
12520;DHT22;6325;49.540;8.364;2022-09-27T00:46:21;11.60;99.90
12520;DHT22;6325;49.540;8.364;2022-09-27T00:49:00;11.40;99.90
12520;DHT22;6325;49.540;8.364;2022-09-27T00:51:30;11.60;99.90
12520;DHT22;6325;49.540;8.364;2022-09-27T00:53:57;11.20;99.90
12520;DHT22;6325;49.540;8.364;2022-09-27T00:56:28;11.50;99.90
12520;DHT22;6325;49.540;8.364;2022-09-27T00:59:00;11.60;99.90
12520;DHT22;6325;49.540;8.364;2022-09-27T01:01:28;11.60;99.90
12520;DHT22;6325;49.540;8.364;2022-09-27T01:04:00;11.20;99.90
12520;DHT22;6325;49.540;8.364;2022-09-27T01:06:29;12.00;99.90
12520;DHT22;6325;49.540;8.364;2022-09-27T01:08:56;11.30;99.90
12520;DHT22;6325;49.540;8.364;2022-09-27T01:11:31;11.40;99.90
12520;DHT22;6325;49.540;8.364;2022-09-27T01:14:20;11.60;99.90
12520;DHT22;6325;49.540;8.364;2022-09-27T01:16:56;12.10;99.90
12520;DHT22;6325;49.540;8.364;2022-09-27T01:19:46;11.60;99.90
12520;DHT22;6325;49.540;8.364;2022-09-27T01:22:20;12.10;99.90
12520;DHT22;6325;49.540;8.364;2022-09-27T01:24:55;11.60;99.90
12520;DHT22;6325;49.540;8.364;2022-09-27T01:27:48;12.00;99.90
12520;DHT22;6325;49.540;8.364;2022-09-27T01:30:24;11.60;99.90
12520;DHT22;6325;49.540;8.364;2022-09-27T01:33:08;11.20;99.90
12520;DHT22;6325;49.540;8.364;2022-09-27T01:35:47;11.10;99.90
12520;DHT22;6325;49.540;8.364;2022-09-27T01:38:21;11.70;99.90
12520;DHT22;6325;49.540;8.364;2022-09-27T01:40:56;12.10;99.90
12520;DHT22;6325;49.540;8.364;2022-09-27T01:43:31;11.70;99.90
12520;DHT22;6325;49.540;8.364;2022-09-27T01:46:05;11.50;99.90
12520;DHT22;6325;49.540;8.364;2022-09-27T01:48:37;11.80;99.90
12520;DHT22;6325;49.540;8.364;2022-09-27T01:51:09;12.20;99.90
12520;DHT22;6325;49.540;8.364;2022-09-27T01:53:39;12.00;99.90
12520;DHT22;6325;49.540;8.364;2022-09-27T01:56:10;11.70;99.90
12520;DHT22;6325;49.540;8.364;2022-09-27T01:58:42;11.90;99.90
12520;DHT22;6325;49.540;8.364;2022-09-27T02:01:14;12.30;99.90
12520;DHT22;6325;49.540;8.364;2022-09-27T02:03:45;12.20;99.90
12520;DHT22;6325;49.540;8.364;2022-09-27T02:06:16;11.80;99.90
12520;DHT22;6325;49.540;8.364;2022-09-27T02:08:48;11.70;99.90
12520;DHT22;6325;49.540;8.364;2022-09-27T02:11:17;12.10;99.90
12520;DHT22;6325;49.540;8.364;2022-09-27T02:13:47;11.80;99.90
12520;DHT22;6325;49.540;8.364;2022-09-27T02:16:21;12.30;99.90
12520;DHT22;6325;49.540;8.364;2022-09-27T02:18:58;11.10;99.90
12520;DHT22;6325;49.540;8.364;2022-09-27T02:21:33;11.80;99.90
12520;DHT22;6325;49.540;8.364;2022-09-27T02:24:04;11.70;99.90
12520;DHT22;6325;49.540;8.364;2022-09-27T02:26:36;11.70;99.90
12520;DHT22;6325;49.540;8.364;2022-09-27T02:29:08;11.70;99.90
12520;DHT22;6325;49.540;8.364;2022-09-27T02:31:37;11.70;99.90
12520;DHT22;6325;49.540;8.364;2022-09-27T02:34:07;11.70;99.90
12520;DHT22;6325;49.540;8.364;2022-09-27T02:36:35;11.70;99.90
12520;DHT22;6325;49.540;8.364;2022-09-27T02:39:03;11.60;99.90
12520;DHT22;6325;49.540;8.364;2022-09-27T02:41:32;11.90;99.90
12520;DHT22;6325;49.540;8.364;2022-09-27T02:44:02;11.30;99.90
12520;DHT22;6325;49.540;8.364;2022-09-27T02:46:42;11.70;99.90
12520;DHT22;6325;49.540;8.364;2022-09-27T02:49:22;11.70;99.90
12520;DHT22;6325;49.540;8.364;2022-09-27T02:51:59;11.80;99.90
12520;DHT22;6325;49.540;8.364;2022-09-27T02:54:39;12.10;99.90
12520;DHT22;6325;49.540;8.364;2022-09-27T02:57:15;11.40;99.90
12520;DHT22;6325;49.540;8.364;2022-09-27T02:59:52;11.60;99.90
12520;DHT22;6325;49.540;8.364;2022-09-27T03:02:29;11.10;99.90
12520;DHT22;6325;49.540;8.364;2022-09-27T03:05:00;11.70;99.90
12520;DHT22;6325;49.540;8.364;2022-09-27T03:07:29;11.80;99.90
12520;DHT22;6325;49.540;8.364;2022-09-27T03:09:55;11.90;99.90
12520;DHT22;6325;49.540;8.364;2022-09-27T03:12:22;11.70;99.90
12520;DHT22;6325;49.540;8.364;2022-09-27T03:14:52;11.10;99.90
12520;DHT22;6325;49.540;8.364;2022-09-27T03:17:19;11.70;99.90
12520;DHT22;6325;49.540;8.364;2022-09-27T03:19:48;11.70;99.90
12520;DHT22;6325;49.540;8.364;2022-09-27T03:22:16;12.30;99.90
12520;DHT22;6325;49.540;8.364;2022-09-27T03:24:43;11.30;99.90
12520;DHT22;6325;49.540;8.364;2022-09-27T03:27:11;11.70;99.90
12520;DHT22;6325;49.540;8.364;2022-09-27T03:29:38;11.50;99.90
12520;DHT22;6325;49.540;8.364;2022-09-27T03:32:04;11.60;99.90
12520;DHT22;6325;49.540;8.364;2022-09-27T03:34:31;11.30;99.90
12520;DHT22;6325;49.540;8.364;2022-09-27T03:37:00;12.10;99.90
12520;DHT22;6325;49.540;8.364;2022-09-27T03:39:27;11.60;99.90
12520;DHT22;6325;49.540;8.364;2022-09-27T03:41:54;11.80;99.90
12520;DHT22;6325;49.540;8.364;2022-09-27T03:44:21;11.90;99.90
12520;DHT22;6325;49.540;8.364;2022-09-27T03:46:48;11.70;99.90
12520;DHT22;6325;49.540;8.364;2022-09-27T03:49:15;11.80;99.90
12520;DHT22;6325;49.540;8.364;2022-09-27T03:51:42;11.60;99.90
12520;DHT22;6325;49.540;8.364;2022-09-27T03:54:10;11.10;99.90
12520;DHT22;6325;49.540;8.364;2022-09-27T03:56:37;11.20;99.90
12520;DHT22;6325;49.540;8.364;2022-09-27T03:59:04;11.60;99.90
12520;DHT22;6325;49.540;8.364;2022-09-27T04:01:31;11.80;99.90
12520;DHT22;6325;49.540;8.364;2022-09-27T04:04:00;11.80;99.90
12520;DHT22;6325;49.540;8.364;2022-09-27T04:06:27;11.70;99.90
12520;DHT22;6325;49.540;8.364;2022-09-27T04:08:54;11.90;99.90
12520;DHT22;6325;49.540;8.364;2022-09-27T04:11:22;11.70;99.90
12520;DHT22;6325;49.540;8.364;2022-09-27T04:13:49;11.70;99.90
12520;DHT22;6325;49.540;8.364;2022-09-27T04:16:16;11.90;99.90
12520;DHT22;6325;49.540;8.364;2022-09-27T04:18:43;12.00;99.90
12520;DHT22;6325;49.540;8.364;2022-09-27T04:21:11;12.00;99.90
12520;DHT22;6325;49.540;8.364;2022-09-27T04:23:37;11.60;99.90
12520;DHT22;6325;49.540;8.364;2022-09-27T04:26:04;11.80;99.90
12520;DHT22;6325;49.540;8.364;2022-09-27T04:28:32;11.70;99.90
12520;DHT22;6325;49.540;8.364;2022-09-27T04:30:59;11.50;99.90
12520;DHT22;6325;49.540;8.364;2022-09-27T04:33:26;11.80;99.90
12520;DHT22;6325;49.540;8.364;2022-09-27T04:35:53;12.20;99.90
12520;DHT22;6325;49.540;8.364;2022-09-27T04:38:37;11.40;99.90
12520;DHT22;6325;49.540;8.364;2022-09-27T04:41:05;11.60;99.90
12520;DHT22;6325;49.540;8.364;2022-09-27T04:43:33;11.70;99.90
12520;DHT22;6325;49.540;8.364;2022-09-27T04:46:00;11.50;99.90
12520;DHT22;6325;49.540;8.364;2022-09-27T04:48:27;11.50;99.90
12520;DHT22;6325;49.540;8.364;2022-09-27T04:50:57;11.60;99.90
12520;DHT22;6325;49.540;8.364;2022-09-27T04:53:25;11.60;99.90
12520;DHT22;6325;49.540;8.364;2022-09-27T04:55:52;11.50;99.90
12520;DHT22;6325;49.540;8.364;2022-09-27T04:58:19;12.20;99.90
12520;DHT22;6325;49.540;8.364;2022-09-27T05:00:48;11.60;99.90
12520;DHT22;6325;49.540;8.364;2022-09-27T05:03:17;11.50;99.90
12520;DHT22;6325;49.540;8.364;2022-09-27T05:05:44;11.70;99.90
12520;DHT22;6325;49.540;8.364;2022-09-27T05:08:11;11.30;99.90
12520;DHT22;6325;49.540;8.364;2022-09-27T05:10:38;11.20;99.90
12520;DHT22;6325;49.540;8.364;2022-09-27T05:13:04;11.50;99.90
12520;DHT22;6325;49.540;8.364;2022-09-27T05:15:32;11.50;99.90
12520;DHT22;6325;49.540;8.364;2022-09-27T05:18:00;11.50;99.90
12520;DHT22;6325;49.540;8.364;2022-09-27T05:20:27;11.60;99.90
12520;DHT22;6325;49.540;8.364;2022-09-27T05:22:54;11.50;99.90
12520;DHT22;6325;49.540;8.364;2022-09-27T05:25:21;12.00;99.90
12520;DHT22;6325;49.540;8.364;2022-09-27T05:27:48;11.50;99.90
12520;DHT22;6325;49.540;8.364;2022-09-27T05:30:16;11.20;99.90
12520;DHT22;6325;49.540;8.364;2022-09-27T05:32:43;11.30;99.90
12520;DHT22;6325;49.540;8.364;2022-09-27T05:35:13;11.50;99.90
12520;DHT22;6325;49.540;8.364;2022-09-27T05:37:40;11.50;99.90
12520;DHT22;6325;49.540;8.364;2022-09-27T05:40:07;11.70;99.90
12520;DHT22;6325;49.540;8.364;2022-09-27T05:42:36;11.50;99.90
12520;DHT22;6325;49.540;8.364;2022-09-27T05:45:05;11.50;99.90
12520;DHT22;6325;49.540;8.364;2022-09-27T05:47:32;11.60;99.90
12520;DHT22;6325;49.540;8.364;2022-09-27T05:49:59;11.50;99.90
12520;DHT22;6325;49.540;8.364;2022-09-27T05:52:27;11.30;99.90
12520;DHT22;6325;49.540;8.364;2022-09-27T05:54:54;11.30;99.90
12520;DHT22;6325;49.540;8.364;2022-09-27T05:57:22;10.80;99.90
12520;DHT22;6325;49.540;8.364;2022-09-27T05:59:49;11.40;99.90
12520;DHT22;6325;49.540;8.364;2022-09-27T06:02:16;11.20;99.90
12520;DHT22;6325;49.540;8.364;2022-09-27T06:04:43;11.30;99.90
12520;DHT22;6325;49.540;8.364;2022-09-27T06:07:10;11.00;99.90
12520;DHT22;6325;49.540;8.364;2022-09-27T06:09:38;12.10;99.90
12520;DHT22;6325;49.540;8.364;2022-09-27T06:12:05;11.50;99.90
12520;DHT22;6325;49.540;8.364;2022-09-27T06:14:36;11.60;99.90
12520;DHT22;6325;49.540;8.364;2022-09-27T06:17:03;11.60;99.90
12520;DHT22;6325;49.540;8.364;2022-09-27T06:19:30;12.10;99.90
12520;DHT22;6325;49.540;8.364;2022-09-27T06:21:57;11.60;99.90
12520;DHT22;6325;49.540;8.364;2022-09-27T06:24:24;12.10;99.90
12520;DHT22;6325;49.540;8.364;2022-09-27T06:26:52;11.70;99.90
12520;DHT22;6325;49.540;8.364;2022-09-27T06:29:19;12.20;99.90
12520;DHT22;6325;49.540;8.364;2022-09-27T06:31:46;11.30;99.90
12520;DHT22;6325;49.540;8.364;2022-09-27T06:34:13;11.40;99.90
12520;DHT22;6325;49.540;8.364;2022-09-27T06:36:41;11.40;99.90
12520;DHT22;6325;49.540;8.364;2022-09-27T06:39:07;11.90;99.90
12520;DHT22;6325;49.540;8.364;2022-09-27T06:41:34;11.60;99.90
12520;DHT22;6325;49.540;8.364;2022-09-27T06:44:03;11.70;99.90
12520;DHT22;6325;49.540;8.364;2022-09-27T06:46:30;11.70;99.90
12520;DHT22;6325;49.540;8.364;2022-09-27T06:48:56;11.90;99.90
12520;DHT22;6325;49.540;8.364;2022-09-27T06:51:23;11.70;99.90
12520;DHT22;6325;49.540;8.364;2022-09-27T06:53:51;11.70;99.90
12520;DHT22;6325;49.540;8.364;2022-09-27T06:56:17;11.90;99.90
12520;DHT22;6325;49.540;8.364;2022-09-27T06:58:44;12.10;99.90
12520;DHT22;6325;49.540;8.364;2022-09-27T07:01:30;11.90;99.90
12520;DHT22;6325;49.540;8.364;2022-09-27T07:03:56;11.80;99.90
12520;DHT22;6325;49.540;8.364;2022-09-27T07:06:23;11.70;99.90
12520;DHT22;6325;49.540;8.364;2022-09-27T07:08:51;11.80;99.90
12520;DHT22;6325;49.540;8.364;2022-09-27T07:11:19;12.40;99.90
12520;DHT22;6325;49.540;8.364;2022-09-27T07:13:46;12.00;99.90
12520;DHT22;6325;49.540;8.364;2022-09-27T07:16:13;11.50;99.90
12520;DHT22;6325;49.540;8.364;2022-09-27T07:18:42;12.10;99.90
12520;DHT22;6325;49.540;8.364;2022-09-27T07:21:09;12.00;99.90
12520;DHT22;6325;49.540;8.364;2022-09-27T07:23:37;12.60;99.90
12520;DHT22;6325;49.540;8.364;2022-09-27T07:26:04;12.00;99.90
12520;DHT22;6325;49.540;8.364;2022-09-27T07:28:33;12.60;99.90
12520;DHT22;6325;49.540;8.364;2022-09-27T07:31:01;11.50;99.90
12520;DHT22;6325;49.540;8.364;2022-09-27T07:33:28;12.10;99.90
12520;DHT22;6325;49.540;8.364;2022-09-27T07:35:56;12.40;99.90
12520;DHT22;6325;49.540;8.364;2022-09-27T07:38:23;12.10;99.90
12520;DHT22;6325;49.540;8.364;2022-09-27T07:40:51;12.20;99.90
12520;DHT22;6325;49.540;8.364;2022-09-27T07:43:18;12.50;99.90
12520;DHT22;6325;49.540;8.364;2022-09-27T07:45:45;12.40;99.90
12520;DHT22;6325;49.540;8.364;2022-09-27T07:48:13;12.00;99.90
12520;DHT22;6325;49.540;8.364;2022-09-27T07:50:40;11.90;99.90
12520;DHT22;6325;49.540;8.364;2022-09-27T07:53:08;12.80;99.90
12520;DHT22;6325;49.540;8.364;2022-09-27T07:55:37;12.00;99.90
12520;DHT22;6325;49.540;8.364;2022-09-27T07:58:06;12.40;99.90
12520;DHT22;6325;49.540;8.364;2022-09-27T08:00:34;12.50;99.90
12520;DHT22;6325;49.540;8.364;2022-09-27T08:03:04;12.40;99.90
12520;DHT22;6325;49.540;8.364;2022-09-27T08:05:33;12.20;99.90
12520;DHT22;6325;49.540;8.364;2022-09-27T08:08:00;12.30;99.90
12520;DHT22;6325;49.540;8.364;2022-09-27T08:10:29;12.40;99.90
12520;DHT22;6325;49.540;8.364;2022-09-27T08:12:56;12.50;99.90
12520;DHT22;6325;49.540;8.364;2022-09-27T08:15:24;12.20;99.90
12520;DHT22;6325;49.540;8.364;2022-09-27T08:17:52;12.30;99.90
12520;DHT22;6325;49.540;8.364;2022-09-27T08:20:19;12.50;99.90
12520;DHT22;6325;49.540;8.364;2022-09-27T08:22:46;12.20;99.90
12520;DHT22;6325;49.540;8.364;2022-09-27T08:25:12;12.30;99.90
12520;DHT22;6325;49.540;8.364;2022-09-27T08:27:41;12.20;99.90
12520;DHT22;6325;49.540;8.364;2022-09-27T08:30:09;12.40;99.90
12520;DHT22;6325;49.540;8.364;2022-09-27T08:32:35;12.50;99.90
12520;DHT22;6325;49.540;8.364;2022-09-27T08:35:03;13.10;99.90
12520;DHT22;6325;49.540;8.364;2022-09-27T08:37:31;12.60;99.90
12520;DHT22;6325;49.540;8.364;2022-09-27T08:39:58;13.20;99.90
12520;DHT22;6325;49.540;8.364;2022-09-27T08:42:31;12.60;99.90
12520;DHT22;6325;49.540;8.364;2022-09-27T08:45:05;12.80;99.90
12520;DHT22;6325;49.540;8.364;2022-09-27T08:47:35;12.50;99.90
12520;DHT22;6325;49.540;8.364;2022-09-27T08:50:12;13.00;99.90
12520;DHT22;6325;49.540;8.364;2022-09-27T08:52:43;13.20;99.90
12520;DHT22;6325;49.540;8.364;2022-09-27T08:55:20;13.40;99.90
12520;DHT22;6325;49.540;8.364;2022-09-27T08:57:49;12.20;99.90
12520;DHT22;6325;49.540;8.364;2022-09-27T09:00:20;12.30;99.90
12520;DHT22;6325;49.540;8.364;2022-09-27T09:02:48;12.70;99.90
12520;DHT22;6325;49.540;8.364;2022-09-27T09:05:21;12.30;99.90
12520;DHT22;6325;49.540;8.364;2022-09-27T09:08:07;12.90;99.90
12520;DHT22;6325;49.540;8.364;2022-09-27T09:10:48;13.00;99.90
12520;DHT22;6325;49.540;8.364;2022-09-27T09:13:49;13.20;99.90
12520;DHT22;6325;49.540;8.364;2022-09-27T09:16:30;13.90;99.90
12520;DHT22;6325;49.540;8.364;2022-09-27T09:19:15;13.90;99.90
12520;DHT22;6325;49.540;8.364;2022-09-27T09:21:51;14.00;99.90
12520;DHT22;6325;49.540;8.364;2022-09-27T09:24:31;14.20;99.90
12520;DHT22;6325;49.540;8.364;2022-09-27T09:27:07;14.00;99.90
12520;DHT22;6325;49.540;8.364;2022-09-27T09:29:54;14.30;99.90
12520;DHT22;6325;49.540;8.364;2022-09-27T09:32:31;14.40;99.90
12520;DHT22;6325;49.540;8.364;2022-09-27T09:35:01;14.40;99.90
12520;DHT22;6325;49.540;8.364;2022-09-27T09:37:35;14.40;99.90
12520;DHT22;6325;49.540;8.364;2022-09-27T09:40:13;14.50;99.90
12520;DHT22;6325;49.540;8.364;2022-09-27T09:42:46;14.30;99.90
12520;DHT22;6325;49.540;8.364;2022-09-27T09:45:18;14.30;99.90
12520;DHT22;6325;49.540;8.364;2022-09-27T09:47:51;14.30;99.90
12520;DHT22;6325;49.540;8.364;2022-09-27T09:50:24;14.70;99.90
12520;DHT22;6325;49.540;8.364;2022-09-27T09:52:56;13.70;99.90
12520;DHT22;6325;49.540;8.364;2022-09-27T09:55:28;13.60;99.90
12520;DHT22;6325;49.540;8.364;2022-09-27T09:58:04;13.90;99.90
12520;DHT22;6325;49.540;8.364;2022-09-27T10:00:39;13.30;99.90
12520;DHT22;6325;49.540;8.364;2022-09-27T10:03:09;13.80;99.90
12520;DHT22;6325;49.540;8.364;2022-09-27T10:05:35;13.70;99.90
12520;DHT22;6325;49.540;8.364;2022-09-27T10:08:05;13.30;99.90
12520;DHT22;6325;49.540;8.364;2022-09-27T10:10:33;13.10;99.90
12520;DHT22;6325;49.540;8.364;2022-09-27T10:13:02;13.70;99.90
12520;DHT22;6325;49.540;8.364;2022-09-27T10:15:30;13.10;99.90
12520;DHT22;6325;49.540;8.364;2022-09-27T10:17:58;13.40;99.90
12520;DHT22;6325;49.540;8.364;2022-09-27T10:20:32;13.90;99.90
12520;DHT22;6325;49.540;8.364;2022-09-27T10:23:05;13.80;99.90
12520;DHT22;6325;49.540;8.364;2022-09-27T10:25:46;13.30;99.90
12520;DHT22;6325;49.540;8.364;2022-09-27T10:28:28;13.20;99.90
12520;DHT22;6325;49.540;8.364;2022-09-27T10:31:00;13.30;99.90
12520;DHT22;6325;49.540;8.364;2022-09-27T10:33:28;13.00;99.90
12520;DHT22;6325;49.540;8.364;2022-09-27T10:35:58;12.90;99.90
12520;DHT22;6325;49.540;8.364;2022-09-27T10:38:27;13.20;99.90
12520;DHT22;6325;49.540;8.364;2022-09-27T10:40:56;13.20;99.90
12520;DHT22;6325;49.540;8.364;2022-09-27T10:43:29;13.20;99.90
12520;DHT22;6325;49.540;8.364;2022-09-27T10:46:04;13.30;99.90
12520;DHT22;6325;49.540;8.364;2022-09-27T10:48:31;13.70;99.90
12520;DHT22;6325;49.540;8.364;2022-09-27T10:51:03;13.10;99.90
12520;DHT22;6325;49.540;8.364;2022-09-27T10:53:32;14.10;99.90
12520;DHT22;6325;49.540;8.364;2022-09-27T10:56:00;13.80;99.90
12520;DHT22;6325;49.540;8.364;2022-09-27T10:58:31;14.50;99.90
12520;DHT22;6325;49.540;8.364;2022-09-27T11:01:00;14.60;99.90
12520;DHT22;6325;49.540;8.364;2022-09-27T11:03:28;14.70;99.90
12520;DHT22;6325;49.540;8.364;2022-09-27T11:05:56;14.50;99.90
12520;DHT22;6325;49.540;8.364;2022-09-27T11:08:29;14.10;99.90
12520;DHT22;6325;49.540;8.364;2022-09-27T11:11:11;14.60;99.90
12520;DHT22;6325;49.540;8.364;2022-09-27T11:13:56;14.70;99.90
12520;DHT22;6325;49.540;8.364;2022-09-27T11:16:36;14.90;99.90
12520;DHT22;6325;49.540;8.364;2022-09-27T11:19:17;15.40;99.90
12520;DHT22;6325;49.540;8.364;2022-09-27T11:21:51;15.20;99.90
12520;DHT22;6325;49.540;8.364;2022-09-27T11:24:47;14.80;99.90
12520;DHT22;6325;49.540;8.364;2022-09-27T11:27:27;14.60;99.90
12520;DHT22;6325;49.540;8.364;2022-09-27T11:30:06;14.50;99.90
12520;DHT22;6325;49.540;8.364;2022-09-27T11:32:56;14.30;99.90
12520;DHT22;6325;49.540;8.364;2022-09-27T11:35:39;14.30;99.90
12520;DHT22;6325;49.540;8.364;2022-09-27T11:38:17;14.10;99.90
12520;DHT22;6325;49.540;8.364;2022-09-27T11:41:01;14.40;99.90
12520;DHT22;6325;49.540;8.364;2022-09-27T11:43:42;13.30;99.90
12520;DHT22;6325;49.540;8.364;2022-09-27T11:46:19;13.50;99.90
12520;DHT22;6325;49.540;8.364;2022-09-27T11:52:13;13.20;99.90
12520;DHT22;6325;49.540;8.364;2022-09-27T11:54:53;13.20;99.90
12520;DHT22;6325;49.540;8.364;2022-09-27T11:57:25;13.20;99.90
12520;DHT22;6325;49.540;8.364;2022-09-27T12:00:07;13.40;99.90
12520;DHT22;6325;49.540;8.364;2022-09-27T12:03:03;13.90;99.90
12520;DHT22;6325;49.540;8.364;2022-09-27T12:05:40;14.30;99.90
12520;DHT22;6325;49.540;8.364;2022-09-27T12:08:24;13.90;99.90
12520;DHT22;6325;49.540;8.364;2022-09-27T12:10:58;14.30;99.90
12520;DHT22;6325;49.540;8.364;2022-09-27T12:13:32;14.50;99.90
12520;DHT22;6325;49.540;8.364;2022-09-27T12:16:00;14.50;99.90
12520;DHT22;6325;49.540;8.364;2022-09-27T12:18:30;14.80;99.90
12520;DHT22;6325;49.540;8.364;2022-09-27T12:21:00;14.90;99.90
12520;DHT22;6325;49.540;8.364;2022-09-27T12:23:33;15.00;99.90
12520;DHT22;6325;49.540;8.364;2022-09-27T12:26:04;14.80;99.90
12520;DHT22;6325;49.540;8.364;2022-09-27T12:28:37;14.90;99.90
12520;DHT22;6325;49.540;8.364;2022-09-27T12:31:15;14.60;99.90
12520;DHT22;6325;49.540;8.364;2022-09-27T12:33:47;14.60;99.90
12520;DHT22;6325;49.540;8.364;2022-09-27T12:36:17;14.60;99.90
12520;DHT22;6325;49.540;8.364;2022-09-27T12:38:52;15.20;99.90
12520;DHT22;6325;49.540;8.364;2022-09-27T12:41:23;15.00;99.90
12520;DHT22;6325;49.540;8.364;2022-09-27T12:43:52;15.10;99.90
12520;DHT22;6325;49.540;8.364;2022-09-27T12:46:26;15.30;99.90
12520;DHT22;6325;49.540;8.364;2022-09-27T12:49:04;15.00;99.90
12520;DHT22;6325;49.540;8.364;2022-09-27T12:51:35;15.20;99.90
12520;DHT22;6325;49.540;8.364;2022-09-27T12:54:36;15.80;99.90
12520;DHT22;6325;49.540;8.364;2022-09-27T12:57:15;15.20;99.90
12520;DHT22;6325;49.540;8.364;2022-09-27T13:00:04;14.80;99.90
12520;DHT22;6325;49.540;8.364;2022-09-27T13:06:13;15.20;99.90
12520;DHT22;6325;49.540;8.364;2022-09-27T13:09:20;15.40;99.90
12520;DHT22;6325;49.540;8.364;2022-09-27T13:11:58;15.10;99.90
12520;DHT22;6325;49.540;8.364;2022-09-27T13:14:30;14.50;99.90
12520;DHT22;6325;49.540;8.364;2022-09-27T13:16:59;14.90;99.90
12520;DHT22;6325;49.540;8.364;2022-09-27T13:19:41;14.70;99.90
12520;DHT22;6325;49.540;8.364;2022-09-27T13:22:09;15.00;99.90
12520;DHT22;6325;49.540;8.364;2022-09-27T13:24:55;14.40;99.90
12520;DHT22;6325;49.540;8.364;2022-09-27T13:27:42;14.10;99.90
12520;DHT22;6325;49.540;8.364;2022-09-27T13:33:31;14.30;99.90
12520;DHT22;6325;49.540;8.364;2022-09-27T13:36:15;13.50;99.90
12520;DHT22;6325;49.540;8.364;2022-09-27T13:38:52;13.10;99.90
12520;DHT22;6325;49.540;8.364;2022-09-27T13:41:30;13.60;99.90
12520;DHT22;6325;49.540;8.364;2022-09-27T13:44:02;13.30;99.90
12520;DHT22;6325;49.540;8.364;2022-09-27T13:46:34;13.30;99.90
12520;DHT22;6325;49.540;8.364;2022-09-27T13:49:11;13.20;99.90
12520;DHT22;6325;49.540;8.364;2022-09-27T13:51:43;13.10;99.90
12520;DHT22;6325;49.540;8.364;2022-09-27T13:54:37;12.90;99.90
12520;DHT22;6325;49.540;8.364;2022-09-27T13:57:37;12.70;99.90
12520;DHT22;6325;49.540;8.364;2022-09-27T14:00:09;13.10;99.90
12520;DHT22;6325;49.540;8.364;2022-09-27T14:02:41;13.10;99.90
12520;DHT22;6325;49.540;8.364;2022-09-27T14:05:18;13.10;99.90
12520;DHT22;6325;49.540;8.364;2022-09-27T14:07:48;13.60;99.90
12520;DHT22;6325;49.540;8.364;2022-09-27T14:10:18;13.20;99.90
12520;DHT22;6325;49.540;8.364;2022-09-27T14:12:48;13.30;99.90
12520;DHT22;6325;49.540;8.364;2022-09-27T14:15:18;13.20;99.90
12520;DHT22;6325;49.540;8.364;2022-09-27T14:17:46;14.00;99.90
12520;DHT22;6325;49.540;8.364;2022-09-27T14:23:15;13.70;99.90
12520;DHT22;6325;49.540;8.364;2022-09-27T14:25:45;14.00;99.90
12520;DHT22;6325;49.540;8.364;2022-09-27T14:28:20;13.50;99.90
12520;DHT22;6325;49.540;8.364;2022-09-27T14:30:47;13.70;99.90
12520;DHT22;6325;49.540;8.364;2022-09-27T14:33:27;14.00;99.90
12520;DHT22;6325;49.540;8.364;2022-09-27T14:35:55;13.80;99.90
12520;DHT22;6325;49.540;8.364;2022-09-27T14:38:41;13.90;99.90
12520;DHT22;6325;49.540;8.364;2022-09-27T14:41:09;13.80;99.90
12520;DHT22;6325;49.540;8.364;2022-09-27T14:43:41;13.40;99.90
12520;DHT22;6325;49.540;8.364;2022-09-27T14:46:24;13.80;99.90
12520;DHT22;6325;49.540;8.364;2022-09-27T14:48:51;13.60;99.90
12520;DHT22;6325;49.540;8.364;2022-09-27T14:51:25;13.40;99.90
12520;DHT22;6325;49.540;8.364;2022-09-27T14:53:55;13.10;99.90
12520;DHT22;6325;49.540;8.364;2022-09-27T14:56:27;13.70;99.90
12520;DHT22;6325;49.540;8.364;2022-09-27T14:59:00;13.60;99.90
12520;DHT22;6325;49.540;8.364;2022-09-27T15:01:29;13.30;99.90
12520;DHT22;6325;49.540;8.364;2022-09-27T15:04:01;12.70;99.90
12520;DHT22;6325;49.540;8.364;2022-09-27T15:06:29;13.40;99.90
12520;DHT22;6325;49.540;8.364;2022-09-27T15:08:57;13.50;99.90
12520;DHT22;6325;49.540;8.364;2022-09-27T15:11:26;13.40;99.90
12520;DHT22;6325;49.540;8.364;2022-09-27T15:13:54;13.10;99.90
12520;DHT22;6325;49.540;8.364;2022-09-27T15:16:23;13.50;99.90
12520;DHT22;6325;49.540;8.364;2022-09-27T15:18:58;13.30;99.90
12520;DHT22;6325;49.540;8.364;2022-09-27T15:21:29;13.70;99.90
12520;DHT22;6325;49.540;8.364;2022-09-27T15:23:58;13.60;99.90
12520;DHT22;6325;49.540;8.364;2022-09-27T15:26:34;13.20;99.90
12520;DHT22;6325;49.540;8.364;2022-09-27T15:29:02;13.30;99.90
12520;DHT22;6325;49.540;8.364;2022-09-27T15:31:31;13.40;99.90
12520;DHT22;6325;49.540;8.364;2022-09-27T15:33:59;13.30;99.90
12520;DHT22;6325;49.540;8.364;2022-09-27T15:36:50;12.90;99.90
12520;DHT22;6325;49.540;8.364;2022-09-27T15:39:20;12.30;99.90
12520;DHT22;6325;49.540;8.364;2022-09-27T15:42:07;12.50;99.90
12520;DHT22;6325;49.540;8.364;2022-09-27T15:44:43;12.40;99.90
12520;DHT22;6325;49.540;8.364;2022-09-27T15:47:46;12.90;99.90
12520;DHT22;6325;49.540;8.364;2022-09-27T15:50:35;12.60;99.90
12520;DHT22;6325;49.540;8.364;2022-09-27T15:53:03;12.50;99.90
12520;DHT22;6325;49.540;8.364;2022-09-27T15:55:34;12.60;99.90
12520;DHT22;6325;49.540;8.364;2022-09-27T15:58:04;12.80;99.90
12520;DHT22;6325;49.540;8.364;2022-09-27T16:00:33;13.10;99.90
12520;DHT22;6325;49.540;8.364;2022-09-27T16:03:00;12.60;99.90
12520;DHT22;6325;49.540;8.364;2022-09-27T16:05:27;13.50;99.90
12520;DHT22;6325;49.540;8.364;2022-09-27T16:07:54;13.20;99.90
12520;DHT22;6325;49.540;8.364;2022-09-27T16:10:26;13.00;99.90
12520;DHT22;6325;49.540;8.364;2022-09-27T16:12:56;13.00;99.90
12520;DHT22;6325;49.540;8.364;2022-09-27T16:15:23;12.60;99.90
12520;DHT22;6325;49.540;8.364;2022-09-27T16:17:50;12.60;99.90
12520;DHT22;6325;49.540;8.364;2022-09-27T16:20:19;12.90;99.90
12520;DHT22;6325;49.540;8.364;2022-09-27T16:22:47;12.90;99.90
12520;DHT22;6325;49.540;8.364;2022-09-27T16:25:15;12.60;99.90
12520;DHT22;6325;49.540;8.364;2022-09-27T16:27:42;13.40;99.90